Time;durP1;ratioP1;P1;durP2;ratioP2;P2;SDS_P1;SDS_P2;PMS_P1;PMS_P2;Temp;Humidity;BMP_temperature;BMP_pressure;BME280_temperature;BME280_humidity;BME280_pressure;Samples;Min_cycle;Max_cycle;Signal;HPM_P1;HPM_P2
2022/08/04 00:04:13;;;;;;;5.40;3.20;;;;;;;;;;10234252;29;20408;-83
2022/08/04 00:09:20;;;;;;;4.23;3.20;;;;;;;;;;10237701;28;20501;-84
2022/08/04 00:14:25;;;;;;;4.20;3.78;;;;;;;;;;10237885;29;20414;-83
2022/08/04 00:19:32;;;;;;;3.95;3.30;;;;;;;;;;10237198;29;20487;-84
2022/08/04 00:24:35;;;;;;;3.50;3.20;;;;;;;;;;10236201;28;20428;-85
2022/08/04 00:29:39;;;;;;;3.58;3.28;;;;;;;;;;10232470;29;20450;-84
2022/08/04 00:34:41;;;;;;;3.37;3.07;;;;;;;;;;10236877;29;20430;-84
2022/08/04 00:39:45;;;;;;;3.27;2.80;;;;;;;;;;10237174;28;20502;-84
2022/08/04 00:45:12;;;;;;;4.77;2.93;;;;;;;;;;10236728;28;20830;-83
2022/08/04 00:50:24;;;;;;;3.00;2.70;;;;;;;;;;10234374;29;20447;-84
2022/08/04 00:55:47;;;;;;;3.00;2.50;;;;;;;;;;10236597;28;20423;-84
2022/08/04 01:00:58;;;;;;;4.07;2.80;;;;;;;;;;10234920;29;20481;-84
2022/08/04 01:06:09;;;;;;;5.10;3.10;;;;;;;;;;10235972;29;20495;-85
2022/08/04 01:11:22;;;;;;;4.17;2.80;;;;;;;;;;10234972;28;20530;-84
2022/08/04 01:16:27;;;;;;;2.90;2.60;;;;;;;;;;10234481;28;20411;-84
2022/08/04 01:22:01;;;;;;;3.65;2.80;;;;;;;;;;10235201;28;20733;-84
2022/08/04 01:27:09;;;;;;;4.47;2.60;;;;;;;;;;10235673;28;20434;-84
2022/08/04 01:32:20;;;;;;;6.60;2.90;;;;;;;;;;10236379;28;20523;-84
2022/08/04 01:37:36;;;;;;;4.82;2.90;;;;;;;;;;10234020;29;20420;-83
2022/08/04 01:42:40;;;;;;;3.33;3.03;;;;;;;;;;10232114;28;20495;-84
2022/08/04 01:47:49;;;;;;;4.53;3.10;;;;;;;;;;10235563;29;20414;-84
2022/08/04 01:52:55;;;;;;;4.30;2.73;;;;;;;;;;10235507;28;20947;-83
2022/08/04 01:57:59;;;;;;;4.43;2.97;;;;;;;;;;10242750;28;20412;-83
2022/08/04 02:03:02;;;;;;;3.80;2.85;;;;;;;;;;10240493;29;20482;-84
2022/08/04 02:08:15;;;;;;;4.05;2.95;;;;;;;;;;10241691;29;20416;-82
2022/08/04 02:13:23;;;;;;;7.07;3.50;;;;;;;;;;10240360;29;20902;-83
2022/08/04 02:18:31;;;;;;;4.67;3.10;;;;;;;;;;10241800;29;21027;-83
2022/08/04 02:23:37;;;;;;;4.97;3.97;;;;;;;;;;10241015;28;20540;-82
2022/08/04 02:28:50;;;;;;;5.40;3.97;;;;;;;;;;10269381;23;20434;-90
2022/08/04 02:34:01;;;;;;;4.53;3.70;;;;;;;;;;10239969;28;20890;-90
2022/08/04 02:39:05;;;;;;;6.68;4.00;;;;;;;;;;10240439;28;20781;-90
2022/08/04 02:44:09;;;;;;;4.63;4.22;;;;;;;;;;10236580;28;20483;-89
2022/08/04 02:49:14;;;;;;;4.10;3.70;;;;;;;;;;10234841;29;20435;-90
2022/08/04 02:54:19;;;;;;;4.80;4.30;;;;;;;;;;10235925;28;20463;-89
2022/08/04 02:59:26;;;;;;;5.20;4.50;;;;;;;;;;10237136;29;20499;-90
2022/08/04 03:04:46;;;;;;;4.78;4.20;;;;;;;;;;10238959;28;20503;-90
2022/08/04 03:10:21;;;;;;;4.40;4.00;;;;;;;;;;10238598;28;20429;-89
2022/08/04 03:15:43;;;;;;;4.57;4.18;;;;;;;;;;10238330;29;20412;-89
2022/08/04 03:21:14;;;;;;;6.30;4.13;;;;;;;;;;10239489;28;20412;-90
2022/08/04 03:26:45;;;;;;;4.45;4.00;;;;;;;;;;10236979;28;20964;-89
2022/08/04 03:32:07;;;;;;;6.80;4.18;;;;;;;;;;10236993;28;20440;-89
2022/08/04 03:37:27;;;;;;;4.78;4.22;;;;;;;;;;10195350;29;20408;-90
2022/08/04 03:42:44;;;;;;;4.80;3.80;;;;;;;;;;10234222;28;20931;-89
2022/08/04 03:48:20;;;;;;;4.33;3.93;;;;;;;;;;10237910;29;20841;-90
2022/08/04 03:53:36;;;;;;;7.70;4.30;;;;;;;;;;10235493;28;20515;-90
2022/08/04 03:59:08;;;;;;;5.37;4.30;;;;;;;;;;10234256;28;20511;-89
2022/08/04 04:04:30;;;;;;;5.20;4.13;;;;;;;;;;10237379;29;20415;-89
2022/08/04 04:10:09;;;;;;;4.97;4.47;;;;;;;;;;10236685;28;20438;-88
2022/08/04 04:15:34;;;;;;;6.47;5.15;;;;;;;;;;10233886;29;20407;-89
2022/08/04 04:21:02;;;;;;;7.40;5.40;;;;;;;;;;10234951;28;21057;-90
2022/08/04 04:26:32;;;;;;;5.63;5.13;;;;;;;;;;10232096;28;20411;-90
2022/08/04 04:31:45;;;;;;;8.13;5.25;;;;;;;;;;10236744;29;20515;-89
2022/08/04 04:36:55;;;;;;;5.80;5.00;;;;;;;;;;10237431;28;20499;-88
2022/08/04 04:42:17;;;;;;;6.55;5.05;;;;;;;;;;10237151;28;20673;-89
2022/08/04 04:47:27;;;;;;;6.20;4.90;;;;;;;;;;10232447;28;20420;-89
2022/08/04 04:52:38;;;;;;;5.43;4.93;;;;;;;;;;10236339;29;20751;-89
2022/08/04 04:57:43;;;;;;;7.40;4.90;;;;;;;;;;10235478;28;20412;-89
2022/08/04 05:03:20;;;;;;;4.80;4.30;;;;;;;;;;10236552;28;20528;-89
2022/08/04 05:08:57;;;;;;;4.57;4.13;;;;;;;;;;10224376;28;20412;-89
2022/08/04 05:14:03;;;;;;;5.23;4.20;;;;;;;;;;10230515;28;20507;-89
2022/08/04 05:19:19;;;;;;;5.00;3.93;;;;;;;;;;10235881;29;20768;-89
2022/08/04 05:24:24;;;;;;;4.30;3.90;;;;;;;;;;10234961;28;20425;-89
2022/08/04 05:29:31;;;;;;;5.07;4.38;;;;;;;;;;10238199;28;20499;-91
2022/08/04 05:34:41;;;;;;;6.25;4.28;;;;;;;;;;10242721;29;20471;-88
2022/08/04 05:39:46;;;;;;;4.40;3.83;;;;;;;;;;10243049;28;20426;-90
2022/08/04 05:44:49;;;;;;;5.32;3.90;;;;;;;;;;10242919;29;20424;-90
2022/08/04 05:49:52;;;;;;;4.78;4.35;;;;;;;;;;10245398;29;20850;-82
2022/08/04 05:54:58;;;;;;;6.53;4.20;;;;;;;;;;10249196;28;20451;-88
2022/08/04 06:00:05;;;;;;;4.90;4.03;;;;;;;;;;10244590;28;20498;-88
2022/08/04 06:05:09;;;;;;;5.78;5.13;;;;;;;;;;10240616;28;20412;-89
2022/08/04 06:10:11;;;;;;;6.53;5.70;;;;;;;;;;10244107;28;20771;-89
2022/08/04 06:15:19;;;;;;;5.93;5.20;;;;;;;;;;10242738;28;20424;-89
2022/08/04 06:20:26;;;;;;;5.93;4.72;;;;;;;;;;10242672;29;20404;-90
2022/08/04 06:25:32;;;;;;;4.63;4.22;;;;;;;;;;10233945;28;20992;-88
2022/08/04 06:30:36;;;;;;;7.03;4.50;;;;;;;;;;10240724;29;20426;-88
2022/08/04 06:35:37;;;;;;;5.60;4.15;;;;;;;;;;10241598;28;20412;-88
2022/08/04 06:40:39;;;;;;;5.13;3.93;;;;;;;;;;10240773;28;20844;-89
2022/08/04 06:45:44;;;;;;;4.80;3.43;;;;;;;;;;10241690;28;20504;-88
2022/08/04 06:50:49;;;;;;;3.97;3.00;;;;;;;;;;10240986;28;20412;-89
2022/08/04 06:55:52;;;;;;;3.40;3.10;;;;;;;;;;10239565;28;20412;-88
2022/08/04 07:01:00;;;;;;;3.45;3.00;;;;;;;;;;10241088;28;20889;-90
2022/08/04 07:06:02;;;;;;;3.45;3.10;;;;;;;;;;10240906;28;20991;-89
2022/08/04 07:11:05;;;;;;;5.60;3.20;;;;;;;;;;10240486;28;20745;-89
2022/08/04 07:16:13;;;;;;;4.45;3.10;;;;;;;;;;10236451;28;20408;-89
2022/08/04 07:21:21;;;;;;;3.92;3.33;;;;;;;;;;10240187;29;20416;-89
2022/08/04 07:26:28;;;;;;;5.15;3.42;;;;;;;;;;10240035;28;20770;-89
2022/08/04 07:31:32;;;;;;;4.75;2.90;;;;;;;;;;10238471;28;20481;-89
2022/08/04 07:36:34;;;;;;;5.07;2.60;;;;;;;;;;10239977;28;20428;-88
2022/08/04 07:41:36;;;;;;;3.67;2.60;;;;;;;;;;10239409;28;20419;-88
2022/08/04 07:46:40;;;;;;;3.10;2.47;;;;;;;;;;10239585;29;20416;-90
2022/08/04 07:51:42;;;;;;;4.63;2.95;;;;;;;;;;10238359;28;20460;-89
2022/08/04 07:56:44;;;;;;;3.77;2.60;;;;;;;;;;10238178;28;20854;-90
2022/08/04 08:01:48;;;;;;;3.15;2.30;;;;;;;;;;10240588;28;20497;-90
2022/08/04 08:06:51;;;;;;;4.80;2.63;;;;;;;;;;10238036;29;20468;-90
2022/08/04 08:11:54;;;;;;;2.55;2.30;;;;;;;;;;10238608;28;20499;-90
2022/08/04 08:16:58;;;;;;;4.05;2.50;;;;;;;;;;10237003;29;20404;-90
2022/08/04 08:22:01;;;;;;;3.90;2.58;;;;;;;;;;10233599;28;20444;-90
2022/08/04 08:27:04;;;;;;;3.75;2.53;;;;;;;;;;10234802;28;20439;-91
2022/08/04 08:32:13;;;;;;;3.72;2.28;;;;;;;;;;10226932;28;20441;-87
2022/08/04 08:37:26;;;;;;;5.38;2.55;;;;;;;;;;10234530;28;20503;-90
2022/08/04 08:42:48;;;;;;;3.10;2.50;;;;;;;;;;10238483;28;20487;-90
2022/08/04 08:48:21;;;;;;;3.10;2.13;;;;;;;;;;10236322;28;20916;-90
2022/08/04 08:53:50;;;;;;;6.72;2.40;;;;;;;;;;10238623;28;20857;-90
2022/08/04 08:59:12;;;;;;;4.78;2.40;;;;;;;;;;10235107;28;20418;-89
2022/08/04 09:04:38;;;;;;;2.20;2.00;;;;;;;;;;10235800;28;20426;-91
2022/08/04 09:09:53;;;;;;;2.90;2.00;;;;;;;;;;10237053;28;20507;-91
2022/08/04 09:15:01;;;;;;;2.70;1.80;;;;;;;;;;10244312;28;20509;-91
2022/08/04 09:20:11;;;;;;;2.53;2.30;;;;;;;;;;10238333;28;20934;-89
2022/08/04 09:25:20;;;;;;;3.90;2.22;;;;;;;;;;10245345;28;20465;-91
2022/08/04 09:30:29;;;;;;;2.10;1.70;;;;;;;;;;10238455;28;20457;-90
2022/08/04 09:35:47;;;;;;;3.10;2.00;;;;;;;;;;10242079;28;20514;-89
2022/08/04 09:40:56;;;;;;;2.15;1.73;;;;;;;;;;10261894;28;20414;-90
2022/08/04 09:46:05;;;;;;;2.10;1.90;;;;;;;;;;10240334;28;20412;-90
2022/08/04 09:51:20;;;;;;;3.35;1.80;;;;;;;;;;10242742;28;20419;-90
2022/08/04 09:56:28;;;;;;;1.90;1.70;;;;;;;;;;10240117;28;20408;-88
2022/08/04 10:01:31;;;;;;;2.17;1.60;;;;;;;;;;10240312;28;20607;-90
2022/08/04 10:07:02;;;;;;;3.27;1.70;;;;;;;;;;10232101;28;20806;-89
2022/08/04 10:12:16;;;;;;;2.42;1.80;;;;;;;;;;10205649;28;20511;-89
2022/08/04 10:17:42;;;;;;;4.07;1.63;;;;;;;;;;10233887;28;21293;-91
2022/08/04 10:22:58;;;;;;;1.87;1.77;;;;;;;;;;10236102;28;20521;-91
2022/08/04 10:28:05;;;;;;;2.25;1.90;;;;;;;;;;10233671;28;20503;-91
2022/08/04 10:33:12;;;;;;;2.10;1.90;;;;;;;;;;10231403;28;20523;-90
2022/08/04 10:38:22;;;;;;;1.95;1.85;;;;;;;;;;10232948;29;20414;-91
2022/08/04 10:43:39;;;;;;;4.22;1.90;;;;;;;;;;10230374;28;20428;-91
2022/08/04 10:48:46;;;;;;;2.55;1.90;;;;;;;;;;10237777;28;20491;-91
2022/08/04 10:53:56;;;;;;;2.40;1.87;;;;;;;;;;10238802;28;20956;-93
2022/08/04 10:59:03;;;;;;;3.10;1.90;;;;;;;;;;10235131;28;21364;-90
2022/08/04 11:04:13;;;;;;;3.65;2.10;;;;;;;;;;10234926;28;20421;-92
2022/08/04 11:09:18;;;;;;;2.10;1.92;;;;;;;;;;10232856;28;20435;-91
2022/08/04 11:14:23;;;;;;;2.05;1.95;;;;;;;;;;10234433;28;20975;-92
2022/08/04 11:19:34;;;;;;;4.23;2.20;;;;;;;;;;10232645;28;20407;-92
2022/08/04 11:24:45;;;;;;;2.10;1.90;;;;;;;;;;10233617;28;20444;-91
2022/08/04 11:29:57;;;;;;;2.72;2.10;;;;;;;;;;10236640;28;20447;-90
2022/08/04 11:35:04;;;;;;;2.00;1.80;;;;;;;;;;10236851;28;20428;-90
2022/08/04 11:40:16;;;;;;;2.65;1.90;;;;;;;;;;10232481;28;20420;-91
2022/08/04 11:45:24;;;;;;;3.10;2.00;;;;;;;;;;10230512;28;20416;-93
2022/08/04 11:50:32;;;;;;;2.50;1.98;;;;;;;;;;10231128;28;20412;-91
2022/08/04 11:55:37;;;;;;;2.23;1.90;;;;;;;;;;10228671;28;20511;-91
2022/08/04 12:00:57;;;;;;;2.60;1.93;;;;;;;;;;10229238;28;20497;-91
2022/08/04 12:06:12;;;;;;;2.20;2.10;;;;;;;;;;10233207;29;20444;-92
2022/08/04 12:11:29;;;;;;;2.20;1.83;;;;;;;;;;10236295;28;20420;-90
2022/08/04 12:16:48;;;;;;;2.00;1.90;;;;;;;;;;10238134;29;20436;-88
2022/08/04 12:21:58;;;;;;;2.00;1.90;;;;;;;;;;10239282;28;20476;-88
2022/08/04 12:27:15;;;;;;;2.20;2.00;;;;;;;;;;10235651;28;20717;-91
2022/08/04 12:32:27;;;;;;;1.90;1.80;;;;;;;;;;10197269;29;20457;-90
2022/08/04 12:37:48;;;;;;;3.40;1.80;;;;;;;;;;10190215;29;20948;-89
2022/08/04 12:43:03;;;;;;;2.70;2.00;;;;;;;;;;10195649;29;20418;-92
2022/08/04 12:48:11;;;;;;;2.50;1.90;;;;;;;;;;10196734;28;20493;-89
2022/08/04 12:53:22;;;;;;;2.00;1.80;;;;;;;;;;10194737;29;20909;-89
2022/08/04 12:58:32;;;;;;;2.53;2.05;;;;;;;;;;10203057;29;20420;-90
2022/08/04 13:03:43;;;;;;;2.33;2.08;;;;;;;;;;10197179;29;20430;-91
2022/08/04 13:08:50;;;;;;;2.30;2.10;;;;;;;;;;10195753;28;20428;-89
2022/08/04 13:13:59;;;;;;;3.40;2.00;;;;;;;;;;10191113;29;20451;-89
2022/08/04 13:19:07;;;;;;;2.00;1.90;;;;;;;;;;10202259;29;20914;-89
2022/08/04 13:24:16;;;;;;;2.63;1.98;;;;;;;;;;10221412;29;20497;-89
2022/08/04 13:29:26;;;;;;;1.90;1.80;;;;;;;;;;10217232;28;20827;-88
2022/08/04 13:34:34;;;;;;;2.67;1.95;;;;;;;;;;10232788;28;20428;-89
2022/08/04 13:39:45;;;;;;;2.20;2.00;;;;;;;;;;10230124;28;20519;-90
2022/08/04 13:44:58;;;;;;;2.00;1.90;;;;;;;;;;10228677;28;20499;-91
2022/08/04 13:50:16;;;;;;;2.15;2.05;;;;;;;;;;10234443;28;20431;-91
2022/08/04 13:55:26;;;;;;;2.33;1.97;;;;;;;;;;10242659;28;20424;-91
2022/08/04 14:00:49;;;;;;;2.92;2.05;;;;;;;;;;10235953;28;20422;-91
2022/08/04 14:06:15;;;;;;;1.93;1.83;;;;;;;;;;10234662;28;20886;-91
2022/08/04 14:11:22;;;;;;;2.30;2.20;;;;;;;;;;10234479;28;20415;-90
2022/08/04 14:16:30;;;;;;;2.10;2.00;;;;;;;;;;10234331;28;20515;-90
2022/08/04 14:21:38;;;;;;;4.97;2.22;;;;;;;;;;10233917;28;21213;-91
2022/08/04 14:26:43;;;;;;;2.53;2.10;;;;;;;;;;10236343;28;20427;-85
2022/08/04 14:32:01;;;;;;;2.00;1.90;;;;;;;;;;10237714;28;20419;-92
2022/08/04 14:37:14;;;;;;;4.00;1.90;;;;;;;;;;10217054;23;20441;-87
2022/08/04 14:42:20;;;;;;;2.10;1.90;;;;;;;;;;10192386;29;20782;-87
2022/08/04 14:47:47;;;;;;;2.17;1.97;;;;;;;;;;10200673;29;20413;-85
2022/08/04 14:52:52;;;;;;;2.20;2.00;;;;;;;;;;10193482;29;20539;-85
2022/08/04 14:57:57;;;;;;;2.35;2.00;;;;;;;;;;10197524;29;20425;-84
2022/08/04 15:03:08;;;;;;;2.25;2.08;;;;;;;;;;10202029;29;20897;-85
2022/08/04 15:08:15;;;;;;;2.40;2.20;;;;;;;;;;10199149;29;20406;-85
2022/08/04 15:13:20;;;;;;;2.70;2.13;;;;;;;;;;10193660;29;20828;-85
2022/08/04 15:18:29;;;;;;;2.13;2.00;;;;;;;;;;10195653;29;20424;-83
2022/08/04 15:23:35;;;;;;;2.47;2.27;;;;;;;;;;10194639;29;20418;-83
2022/08/04 15:28:41;;;;;;;2.13;1.80;;;;;;;;;;10194193;29;20840;-84
2022/08/04 15:33:51;;;;;;;2.33;2.07;;;;;;;;;;10193850;29;20787;-84
2022/08/04 15:39:02;;;;;;;2.90;2.00;;;;;;;;;;10194350;29;20423;-84
2022/08/04 15:44:54;;;;;;;2.43;2.03;;;;;;;;;;10197686;29;20947;-83
2022/08/04 15:50:10;;;;;;;2.25;1.92;;;;;;;;;;10194079;29;20474;-83
2022/08/04 15:55:32;;;;;;;1.90;1.80;;;;;;;;;;10190218;29;20428;-83
2022/08/04 16:01:11;;;;;;;2.50;2.10;;;;;;;;;;10191033;29;20484;-83
2022/08/04 16:06:45;;;;;;;2.92;1.88;;;;;;;;;;10193699;29;20408;-83
2022/08/04 16:11:50;;;;;;;2.00;1.90;;;;;;;;;;10191793;29;20455;-83
2022/08/04 16:16:56;;;;;;;3.13;2.00;;;;;;;;;;10193673;29;20460;-83
2022/08/04 16:22:05;;;;;;;2.22;2.03;;;;;;;;;;10195185;29;20477;-83
2022/08/04 16:27:10;;;;;;;4.70;2.10;;;;;;;;;;10194588;29;20844;-82
2022/08/04 16:32:18;;;;;;;3.42;1.70;;;;;;;;;;10202383;29;20425;-82
2022/08/04 16:37:23;;;;;;;2.22;1.70;;;;;;;;;;10191256;29;20784;-83
2022/08/04 16:42:30;;;;;;;2.57;1.93;;;;;;;;;;10199176;29;20546;-83
2022/08/04 16:48:01;;;;;;;2.10;1.80;;;;;;;;;;10200639;29;20431;-82
2022/08/04 16:53:11;;;;;;;2.13;1.92;;;;;;;;;;10203085;29;20428;-83
2022/08/04 16:58:14;;;;;;;1.80;1.70;;;;;;;;;;10192929;29;20791;-83
2022/08/04 17:03:16;;;;;;;2.23;2.00;;;;;;;;;;10196136;29;20457;-83
2022/08/04 17:08:20;;;;;;;3.07;2.00;;;;;;;;;;10199931;29;20436;-84
2022/08/04 17:13:27;;;;;;;2.60;1.88;;;;;;;;;;10196450;29;20455;-82
2022/08/04 17:18:33;;;;;;;2.50;1.92;;;;;;;;;;10192536;29;20417;-82
2022/08/04 17:23:38;;;;;;;5.50;1.92;;;;;;;;;;10195739;29;20421;-83
2022/08/04 17:28:42;;;;;;;3.80;1.90;;;;;;;;;;10201266;29;20922;-83
2022/08/04 17:33:46;;;;;;;2.28;2.10;;;;;;;;;;10206781;29;20517;-82
2022/08/04 17:38:53;;;;;;;2.95;2.05;;;;;;;;;;10197024;29;20423;-83
2022/08/04 17:43:58;;;;;;;5.60;2.28;;;;;;;;;;10199444;29;20416;-83
2022/08/04 17:49:05;;;;;;;4.88;2.28;;;;;;;;;;10201202;29;20449;-82
2022/08/04 17:54:09;;;;;;;3.80;1.97;;;;;;;;;;10197454;29;20469;-83
2022/08/04 17:59:17;;;;;;;2.60;1.70;;;;;;;;;;10198151;29;20417;-86
2022/08/04 18:04:40;;;;;;;2.10;1.90;;;;;;;;;;10202178;29;20417;-85
2022/08/04 18:09:50;;;;;;;2.35;2.15;;;;;;;;;;10201829;29;20466;-84
2022/08/04 18:14:54;;;;;;;2.20;2.00;;;;;;;;;;10204583;29;20557;-85
2022/08/04 18:19:56;;;;;;;2.28;2.00;;;;;;;;;;10202670;29;20421;-84
2022/08/04 18:24:59;;;;;;;2.95;1.83;;;;;;;;;;10197462;29;20416;-84
2022/08/04 18:30:02;;;;;;;2.60;2.00;;;;;;;;;;10196812;29;20521;-84
2022/08/04 18:35:05;;;;;;;2.35;1.92;;;;;;;;;;10195517;29;20848;-84
2022/08/04 18:40:12;;;;;;;2.58;2.20;;;;;;;;;;10190791;29;20436;-84
2022/08/04 18:45:14;;;;;;;2.92;2.00;;;;;;;;;;10186036;29;20905;-83
2022/08/04 18:50:15;;;;;;;2.00;1.90;;;;;;;;;;10195556;29;20488;-84
2022/08/04 18:55:19;;;;;;;2.88;2.20;;;;;;;;;;10196336;29;20450;-84
2022/08/04 19:00:21;;;;;;;2.65;1.98;;;;;;;;;;10201802;29;20512;-84
2022/08/04 19:05:22;;;;;;;2.80;2.30;;;;;;;;;;10195796;29;20950;-84
2022/08/04 19:10:26;;;;;;;2.53;2.10;;;;;;;;;;10193437;29;20888;-85
2022/08/04 19:15:30;;;;;;;3.55;2.55;;;;;;;;;;10197999;29;20431;-83
2022/08/04 19:20:31;;;;;;;5.13;2.70;;;;;;;;;;10184771;29;20975;-84
2022/08/04 19:25:36;;;;;;;4.03;2.83;;;;;;;;;;10194683;29;20976;-83
2022/08/04 19:30:38;;;;;;;3.60;2.70;;;;;;;;;;10196830;29;20437;-85
2022/08/04 19:35:40;;;;;;;4.35;3.15;;;;;;;;;;10198913;29;20523;-85
2022/08/04 19:40:44;;;;;;;3.60;2.45;;;;;;;;;;10197618;29;20421;-84
2022/08/04 19:45:46;;;;;;;2.30;2.10;;;;;;;;;;10197871;29;20421;-86
2022/08/04 19:50:48;;;;;;;2.45;2.25;;;;;;;;;;10196011;29;20436;-86
2022/08/04 19:55:52;;;;;;;3.00;2.40;;;;;;;;;;10199196;29;20793;-86
2022/08/04 20:00:55;;;;;;;5.13;3.05;;;;;;;;;;10195961;29;21853;-85
2022/08/04 20:05:57;;;;;;;4.00;2.95;;;;;;;;;;10200735;29;20410;-85
2022/08/04 20:11:00;;;;;;;3.92;3.20;;;;;;;;;;10196813;29;20496;-86
2022/08/04 20:16:02;;;;;;;4.32;3.00;;;;;;;;;;10196211;29;20457;-84
2022/08/04 20:21:05;;;;;;;3.77;2.57;;;;;;;;;;10192783;29;20410;-85
2022/08/04 20:26:08;;;;;;;5.78;3.05;;;;;;;;;;10187072;29;20416;-84
2022/08/04 20:31:10;;;;;;;4.57;2.67;;;;;;;;;;10192570;29;20421;-83
2022/08/04 20:36:12;;;;;;;4.10;3.00;;;;;;;;;;10188843;29;20426;-84
2022/08/04 20:41:15;;;;;;;4.32;3.20;;;;;;;;;;10188585;29;20417;-84
2022/08/04 20:46:19;;;;;;;4.50;3.00;;;;;;;;;;10188433;29;20425;-83
2022/08/04 20:51:21;;;;;;;3.55;3.10;;;;;;;;;;10191988;29;20418;-84
2022/08/04 20:56:25;;;;;;;3.08;2.78;;;;;;;;;;10192908;29;20436;-83
2022/08/04 21:01:27;;;;;;;3.80;3.00;;;;;;;;;;10187554;29;20420;-84
2022/08/04 21:06:29;;;;;;;4.70;3.00;;;;;;;;;;10190694;29;20426;-83
2022/08/04 21:11:32;;;;;;;4.60;3.83;;;;;;;;;;10186118;29;20417;-83
2022/08/04 21:16:34;;;;;;;4.37;3.10;;;;;;;;;;10185229;29;20438;-84
2022/08/04 21:21:36;;;;;;;5.07;3.05;;;;;;;;;;10192281;29;20414;-84
2022/08/04 21:26:39;;;;;;;4.93;3.10;;;;;;;;;;10189024;29;20430;-84
2022/08/04 21:31:42;;;;;;;5.53;3.10;;;;;;;;;;10195089;29;20420;-84
2022/08/04 21:36:44;;;;;;;5.87;3.87;;;;;;;;;;10192983;29;20433;-84
2022/08/04 21:41:48;;;;;;;4.30;3.88;;;;;;;;;;10192677;29;20778;-83
2022/08/04 21:46:49;;;;;;;5.38;4.57;;;;;;;;;;10192852;29;20420;-84
2022/08/04 21:51:52;;;;;;;7.65;4.30;;;;;;;;;;10196948;29;20831;-84
2022/08/04 21:56:55;;;;;;;6.47;4.83;;;;;;;;;;10196895;29;20806;-84
2022/08/04 22:01:57;;;;;;;5.47;4.70;;;;;;;;;;10194153;29;20414;-85
2022/08/04 22:06:59;;;;;;;6.38;4.38;;;;;;;;;;10193830;29;20452;-85
2022/08/04 22:12:02;;;;;;;5.13;4.07;;;;;;;;;;10197468;29;20420;-86
2022/08/04 22:17:04;;;;;;;4.50;4.10;;;;;;;;;;10202586;29;20520;-85
2022/08/04 22:22:06;;;;;;;4.22;3.50;;;;;;;;;;10202943;29;20412;-84
2022/08/04 22:27:58;;;;;;;4.28;3.50;;;;;;;;;;10201474;29;20418;-85
2022/08/04 22:32:34;;;;;;;6.90;3.93;;;;;;;;;;10200820;29;20394;-84
2022/08/04 22:37:36;;;;;;;6.20;4.20;;;;;;;;;;10201741;29;20517;-85
2022/08/04 22:42:39;;;;;;;4.83;3.83;;;;;;;;;;10200286;29;20413;-85
2022/08/04 22:47:41;;;;;;;4.93;4.10;;;;;;;;;;10201900;29;20501;-84
2022/08/04 22:52:43;;;;;;;4.53;4.13;;;;;;;;;;10201690;29;20417;-86
2022/08/04 22:57:46;;;;;;;5.45;4.05;;;;;;;;;;10198955;29;20429;-83
2022/08/04 23:02:48;;;;;;;5.80;4.13;;;;;;;;;;10201986;29;20418;-85
2022/08/04 23:07:50;;;;;;;6.00;4.65;;;;;;;;;;10201469;29;20441;-84
2022/08/04 23:12:53;;;;;;;5.38;4.50;;;;;;;;;;10200423;29;20450;-84
2022/08/04 23:17:55;;;;;;;5.07;4.53;;;;;;;;;;10201399;29;20465;-84
2022/08/04 23:22:57;;;;;;;5.93;4.72;;;;;;;;;;10200083;29;20445;-85
2022/08/04 23:28:00;;;;;;;6.50;5.87;;;;;;;;;;10199227;29;20894;-85
2022/08/04 23:33:01;;;;;;;6.47;5.87;;;;;;;;;;10199944;29;20497;-86
2022/08/04 23:38:03;;;;;;;7.32;6.15;;;;;;;;;;10200792;29;20466;-86
2022/08/04 23:43:06;;;;;;;7.53;6.23;;;;;;;;;;10199520;29;20450;-85
2022/08/04 23:48:09;;;;;;;7.40;6.18;;;;;;;;;;10199222;29;20441;-85
2022/08/04 23:53:10;;;;;;;7.87;7.07;;;;;;;;;;10198754;29;20500;-85
2022/08/04 23:58:14;;;;;;;9.18;7.30;;;;;;;;;;10199749;29;20469;-85
